Time;durP1;ratioP1;P1;durP2;ratioP2;P2;SDS_P1;SDS_P2;PMS_P1;PMS_P2;Temp;Humidity;BMP_temperature;BMP_pressure;BME280_temperature;BME280_humidity;BME280_pressure;Samples;Min_cycle;Max_cycle;Signal;HPM_P1;HPM_P2
2021/01/23 00:01:26;;;;;;;14.53;6.90;;;3.40;88.50;;;;;;6275839;22;20035;-87
2021/01/23 00:03:52;;;;;;;16.60;7.40;;;3.30;88.50;;;;;;6248780;22;20058;-87
2021/01/23 00:06:18;;;;;;;15.60;6.77;;;3.40;88.50;;;;;;6248678;22;20000;-87
2021/01/23 00:08:43;;;;;;;15.03;6.90;;;3.40;88.30;;;;;;6275523;22;20016;-87
2021/01/23 00:11:09;;;;;;;20.20;6.43;;;3.40;88.60;;;;;;6247905;22;20324;-87
2021/01/23 00:13:35;;;;;;;14.87;6.70;;;3.40;88.70;;;;;;6275770;22;20332;-87
2021/01/23 00:16:00;;;;;;;16.50;7.07;;;3.40;88.90;;;;;;6248573;22;20378;-87
2021/01/23 00:18:26;;;;;;;16.77;7.00;;;3.50;88.50;;;;;;6248479;22;20351;-87
2021/01/23 00:20:52;;;;;;;14.80;7.20;;;3.60;88.00;;;;;;6247697;22;20019;-87
2021/01/23 00:23:17;;;;;;;13.83;6.30;;;3.70;88.10;;;;;;6248112;22;20003;-87
2021/01/23 00:25:43;;;;;;;17.47;7.03;;;3.70;87.40;;;;;;6275564;22;19999;-87
2021/01/23 00:28:08;;;;;;;14.40;6.80;;;3.70;87.50;;;;;;6248421;22;20000;-87
2021/01/23 00:30:34;;;;;;;14.40;6.30;;;3.70;87.20;;;;;;6274908;22;20389;-87
2021/01/23 00:33:00;;;;;;;15.77;7.90;;;3.80;87.30;;;;;;6275372;22;20038;-88
2021/01/23 00:35:25;;;;;;;18.13;7.90;;;3.80;86.70;;;;;;6248369;22;20442;-87
2021/01/23 00:37:53;;;;;;;15.60;6.63;;;3.70;86.80;;;;;;6248386;22;20015;-87
2021/01/23 00:40:19;;;;;;;14.40;7.17;;;3.70;87.10;;;;;;6274990;22;20007;-87
2021/01/23 00:42:45;;;;;;;15.60;6.77;;;3.60;87.40;;;;;;6248289;22;20004;-87
2021/01/23 00:45:11;;;;;;;15.00;6.47;;;3.60;87.60;;;;;;6248116;22;20004;-87
2021/01/23 00:47:37;;;;;;;14.73;6.97;;;3.60;87.70;;;;;;6275626;22;20430;-87
2021/01/23 00:50:03;;;;;;;13.13;6.40;;;3.70;87.70;;;;;;6247325;22;19999;-87
2021/01/23 00:52:29;;;;;;;15.90;6.93;;;3.70;87.40;;;;;;6275321;22;20004;-87
2021/01/23 00:54:55;;;;;;;17.47;6.50;;;3.60;87.60;;;;;;6248377;22;20057;-87
2021/01/23 00:57:20;;;;;;;15.80;7.03;;;3.70;87.40;;;;;;6247965;22;20030;-87
2021/01/23 00:59:46;;;;;;;14.70;6.80;;;3.60;87.80;;;;;;6274970;22;20077;-87
2021/01/23 01:02:12;;;;;;;14.67;6.63;;;3.60;87.60;;;;;;6249269;22;20038;-87
2021/01/23 01:04:37;;;;;;;13.40;6.33;;;3.70;87.10;;;;;;6299246;22;20011;-87
2021/01/23 01:07:03;;;;;;;17.83;7.30;;;3.60;87.30;;;;;;6273998;22;20455;-81
2021/01/23 01:09:29;;;;;;;16.97;6.80;;;3.60;87.40;;;;;;6305971;22;20418;-82
2021/01/23 01:11:55;;;;;;;13.97;6.87;;;3.70;87.40;;;;;;6306701;22;19996;-81
2021/01/23 01:14:20;;;;;;;11.93;6.27;;;3.60;87.30;;;;;;6306940;22;19995;-81
2021/01/23 01:16:46;;;;;;;16.03;6.93;;;3.60;87.40;;;;;;6274441;22;20006;-81
2021/01/23 01:19:11;;;;;;;17.43;7.00;;;3.60;87.60;;;;;;6275108;22;20027;-81
2021/01/23 01:21:37;;;;;;;12.13;6.27;;;3.50;87.70;;;;;;6248395;22;20045;-81
2021/01/23 01:24:04;;;;;;;14.83;6.70;;;3.60;87.90;;;;;;6248489;22;20338;-82
2021/01/23 01:26:29;;;;;;;13.33;6.40;;;3.50;87.80;;;;;;6248565;22;20000;-81
2021/01/23 01:28:55;;;;;;;11.53;6.50;;;3.60;87.60;;;;;;6275302;22;20000;-81
2021/01/23 01:31:21;;;;;;;16.53;6.63;;;3.60;87.50;;;;;;6248609;22;20007;-81
2021/01/23 01:33:47;;;;;;;16.57;7.40;;;3.50;87.80;;;;;;6275667;22;19996;-81
2021/01/23 01:36:13;;;;;;;17.83;6.70;;;3.50;88.30;;;;;;6278209;22;19999;-82
2021/01/23 01:38:39;;;;;;;12.77;6.83;;;3.50;87.90;;;;;;6251064;22;20245;-81
2021/01/23 01:41:04;;;;;;;14.60;7.40;;;3.60;87.50;;;;;;6276955;22;19995;-81
2021/01/23 01:43:30;;;;;;;17.30;6.90;;;3.60;87.20;;;;;;6277561;22;20046;-81
2021/01/23 01:45:56;;;;;;;17.93;6.80;;;3.60;87.40;;;;;;6277666;22;20003;-81
2021/01/23 01:48:22;;;;;;;17.77;7.37;;;3.70;87.80;;;;;;6250283;22;20434;-81
2021/01/23 01:50:48;;;;;;;15.37;7.83;;;3.70;87.50;;;;;;6249783;22;20011;-81
2021/01/23 01:53:20;;;;;;;14.00;7.30;;;3.80;87.30;;;;;;6277759;22;20431;-81
2021/01/23 01:55:47;;;;;;;18.53;7.37;;;3.80;87.40;;;;;;6277651;22;20023;-81
2021/01/23 01:58:13;;;;;;;14.67;7.03;;;3.80;87.40;;;;;;6277863;22;20050;-81
2021/01/23 02:00:39;;;;;;;16.60;6.47;;;3.70;87.60;;;;;;6277309;22;20007;-81
2021/01/23 02:03:19;;;;;;;14.10;6.70;;;3.80;87.30;;;;;;6277614;22;20000;-81
2021/01/23 02:06:03;;;;;;;16.13;7.20;;;3.80;87.30;;;;;;6277699;22;20003;-82
2021/01/23 02:08:41;;;;;;;14.53;6.60;;;3.80;87.10;;;;;;6251033;22;20007;-82
2021/01/23 02:11:19;;;;;;;14.53;6.60;;;3.80;87.20;;;;;;6250121;22;19999;-82
2021/01/23 02:13:59;;;;;;;16.40;6.57;;;3.80;87.10;;;;;;6278304;22;20003;-83
2021/01/23 02:16:29;;;;;;;12.93;6.30;;;3.80;87.10;;;;;;6250594;22;20008;-82
2021/01/23 02:19:28;;;;;;;12.57;6.80;;;3.80;87.00;;;;;;6277210;22;20504;-83
2021/01/23 02:22:31;;;;;;;14.40;7.10;;;3.80;87.10;;;;;;6251728;22;20010;-83
2021/01/23 02:24:57;;;;;;;13.37;6.57;;;3.90;87.20;;;;;;6277961;22;20002;-82
2021/01/23 02:27:45;;;;;;;16.87;6.60;;;3.90;87.10;;;;;;6277710;22;20079;-82
2021/01/23 02:30:21;;;;;;;17.98;7.05;;;3.90;87.10;;;;;;6277127;22;20067;-82
2021/01/23 02:32:54;;;;;;;14.63;7.03;;;3.80;87.40;;;;;;6277897;22;20004;-82
2021/01/23 02:35:22;;;;;;;16.73;7.17;;;3.80;87.60;;;;;;6277791;22;20004;-83
2021/01/23 02:37:49;;;;;;;16.43;7.50;;;3.90;87.50;;;;;;6277436;22;20054;-82
2021/01/23 02:40:15;;;;;;;16.13;7.67;;;3.80;87.30;;;;;;6277372;22;20004;-82
2021/01/23 02:42:41;;;;;;;18.27;7.27;;;3.90;87.10;;;;;;6277778;22;19995;-82
2021/01/23 02:45:11;;;;;;;17.50;6.87;;;3.80;86.90;;;;;;6250378;22;20039;-82
2021/01/23 02:47:36;;;;;;;;;;;3.80;87.30;;;;;;6277383;22;19995;-82
2021/01/23 02:50:04;;;;;;;13.70;7.00;;;3.80;87.20;;;;;;6276934;22;20280;-83
2021/01/23 02:52:48;;;;;;;13.73;7.17;;;3.80;87.40;;;;;;6277717;22;20082;-82
2021/01/23 02:55:19;;;;;;;15.73;7.03;;;3.80;87.40;;;;;;6250941;22;20438;-82
2021/01/23 02:57:48;;;;;;;14.90;7.57;;;3.90;87.50;;;;;;6278146;22;20000;-83
2021/01/23 03:00:15;;;;;;;13.82;6.30;;;3.90;87.10;;;;;;6250058;22;20030;-82
2021/01/23 03:02:49;;;;;;;13.87;6.63;;;3.90;87.20;;;;;;6277831;22;19996;-82
2021/01/23 03:05:16;;;;;;;13.70;6.30;;;3.90;87.00;;;;;;6278403;22;19996;-83
2021/01/23 03:07:42;;;;;;;13.13;6.77;;;3.90;87.00;;;;;;6277833;22;20008;-82
2021/01/23 03:10:09;;;;;;;12.90;6.63;;;3.90;87.00;;;;;;6276888;22;20450;-82
2021/01/23 03:12:35;;;;;;;13.03;6.57;;;3.90;86.90;;;;;;6277233;22;20000;-82
2021/01/23 03:15:01;;;;;;;14.43;6.33;;;3.90;86.60;;;;;;6276700;22;20053;-82
2021/01/23 03:17:27;;;;;;;12.07;6.30;;;3.90;86.80;;;;;;6250018;22;20008;-82
2021/01/23 03:19:53;;;;;;;13.77;6.40;;;3.90;86.90;;;;;;6276544;22;20031;-83
2021/01/23 03:22:19;;;;;;;11.77;5.97;;;3.90;87.00;;;;;;6276750;22;20307;-82
2021/01/23 03:24:44;;;;;;;12.50;6.57;;;3.90;86.80;;;;;;6250303;22;20082;-82
2021/01/23 03:27:11;;;;;;;12.00;6.03;;;3.90;86.70;;;;;;6277292;22;20007;-82
2021/01/23 03:29:37;;;;;;;16.03;6.70;;;3.90;86.90;;;;;;6249273;22;20027;-83
2021/01/23 03:32:03;;;;;;;15.70;6.50;;;3.80;86.90;;;;;;6249869;22;20007;-83
2021/01/23 03:34:29;;;;;;;13.30;6.73;;;3.80;86.80;;;;;;6277478;22;20002;-83
2021/01/23 03:36:54;;;;;;;12.60;6.03;;;3.80;87.30;;;;;;6250085;22;20411;-83
2021/01/23 03:39:20;;;;;;;11.87;6.27;;;3.90;87.20;;;;;;6276590;22;20322;-82
2021/01/23 03:41:45;;;;;;;11.30;6.40;;;3.80;87.20;;;;;;6277279;22;20004;-82
2021/01/23 03:44:11;;;;;;;14.10;6.00;;;3.80;87.40;;;;;;6277081;22;20004;-82
2021/01/23 03:46:37;;;;;;;12.33;6.37;;;3.80;86.90;;;;;;6276942;22;20007;-82
2021/01/23 03:49:02;;;;;;;11.57;6.17;;;3.80;87.30;;;;;;6249558;22;20011;-83
2021/01/23 03:51:28;;;;;;;12.83;5.67;;;3.80;87.20;;;;;;6277073;22;20047;-82
2021/01/23 03:53:54;;;;;;;11.70;6.20;;;3.80;86.80;;;;;;6277090;22;20007;-82
2021/01/23 03:56:19;;;;;;;13.73;5.53;;;3.70;87.30;;;;;;6276979;22;20003;-82
2021/01/23 03:58:45;;;;;;;12.70;6.53;;;3.80;87.30;;;;;;6276406;22;20492;-82
2021/01/23 04:01:11;;;;;;;10.97;4.90;;;3.80;87.00;;;;;;6276383;22;20027;-82
2021/01/23 04:03:37;;;;;;;13.63;6.07;;;3.80;87.60;;;;;;6276853;22;20061;-82
2021/01/23 04:06:03;;;;;;;13.90;5.77;;;3.80;87.10;;;;;;6249894;22;19995;-82
2021/01/23 04:08:30;;;;;;;12.37;5.77;;;3.80;86.70;;;;;;6249862;22;20015;-82
2021/01/23 04:10:56;;;;;;;13.77;5.80;;;3.80;86.70;;;;;;6248978;22;20010;-82
2021/01/23 04:13:22;;;;;;;12.53;5.87;;;3.80;86.30;;;;;;6277078;22;20431;-82
2021/01/23 04:15:48;;;;;;;14.17;5.80;;;3.80;86.30;;;;;;6250222;22;20038;-82
2021/01/23 04:18:13;;;;;;;11.53;5.60;;;3.90;86.40;;;;;;6277287;22;20003;-82
2021/01/23 04:20:39;;;;;;;13.23;6.00;;;3.90;86.30;;;;;;6276762;22;20030;-83
2021/01/23 04:23:05;;;;;;;10.73;5.43;;;3.90;86.00;;;;;;6276985;22;20078;-83
2021/01/23 04:25:30;;;;;;;12.20;5.70;;;3.90;86.00;;;;;;6250518;22;20004;-82
2021/01/23 04:27:56;;;;;;;11.83;5.50;;;3.80;86.00;;;;;;6276913;22;20000;-83
2021/01/23 04:30:24;;;;;;;11.77;5.73;;;3.80;86.40;;;;;;6276900;22;20065;-82
2021/01/23 04:32:50;;;;;;;10.57;5.60;;;3.80;86.20;;;;;;6277304;22;20011;-83
2021/01/23 04:35:16;;;;;;;13.17;5.90;;;3.80;86.50;;;;;;6250028;22;20031;-82
2021/01/23 04:37:42;;;;;;;9.73;5.10;;;3.80;86.40;;;;;;6249718;22;20003;-82
2021/01/23 04:40:09;;;;;;;10.40;5.23;;;3.80;86.60;;;;;;6249511;22;20011;-83
2021/01/23 04:42:40;;;;;;;9.70;5.20;;;3.90;87.00;;;;;;6276849;22;20400;-82
2021/01/23 04:45:07;;;;;;;9.23;5.40;;;3.90;87.00;;;;;;6250095;22;20003;-83
2021/01/23 04:47:33;;;;;;;10.63;5.60;;;3.90;86.90;;;;;;6277600;22;20021;-83
2021/01/23 04:49:58;;;;;;;10.60;5.70;;;3.90;86.90;;;;;;6275985;22;20457;-82
2021/01/23 04:52:24;;;;;;;11.83;5.40;;;3.90;86.80;;;;;;6275764;22;20007;-82
2021/01/23 04:54:50;;;;;;;7.47;5.10;;;3.90;86.90;;;;;;6275682;22;20030;-82
2021/01/23 04:57:16;;;;;;;9.87;5.43;;;4.00;87.20;;;;;;6275400;22;20030;-82
2021/01/23 04:59:41;;;;;;;12.20;5.77;;;3.90;87.00;;;;;;6247894;22;20007;-82
2021/01/23 05:02:14;;;;;;;9.97;5.30;;;4.00;87.20;;;;;;6275435;22;20075;-82
2021/01/23 05:05:01;;;;;;;9.10;5.47;;;4.00;86.90;;;;;;6275574;22;20191;-82
2021/01/23 05:07:28;;;;;;;9.10;5.10;;;4.00;87.00;;;;;;6275662;22;20007;-82
2021/01/23 05:09:54;;;;;;;9.17;5.40;;;3.90;87.50;;;;;;6274529;22;20023;-82
2021/01/23 05:12:39;;;;;;;8.17;5.07;;;4.00;87.50;;;;;;6275498;22;20003;-82
2021/01/23 05:15:08;;;;;;;9.87;5.40;;;4.00;87.70;;;;;;6275469;22;20000;-82
2021/01/23 05:17:58;;;;;;;8.48;4.93;;;4.00;87.50;;;;;;6248212;22;20495;-82
2021/01/23 05:20:47;;;;;;;9.53;4.80;;;4.00;87.30;;;;;;6247622;22;20380;-83
2021/01/23 05:23:17;;;;;;;9.20;5.27;;;4.00;87.40;;;;;;6275303;22;20003;-82
2021/01/23 05:25:47;;;;;;;10.00;5.70;;;4.10;87.50;;;;;;6275604;22;20059;-82
2021/01/23 05:28:13;;;;;;;11.43;5.57;;;4.10;87.10;;;;;;6275390;22;20000;-82
2021/01/23 05:30:50;;;;;;;11.43;5.80;;;4.10;87.20;;;;;;6274743;22;20353;-82
2021/01/23 05:33:19;;;;;;;9.90;5.60;;;4.10;87.20;;;;;;6248316;22;20011;-82
2021/01/23 05:35:56;;;;;;;10.23;5.37;;;4.10;87.40;;;;;;6248405;22;20434;-82
2021/01/23 05:38:25;;;;;;;11.07;5.20;;;4.10;87.50;;;;;;6248320;22;20087;-82
2021/01/23 05:40:54;;;;;;;9.03;5.70;;;4.10;87.90;;;;;;6274906;22;20000;-82
2021/01/23 05:43:58;;;;;;;10.23;5.72;;;4.10;87.70;;;;;;6248211;22;20012;-83
2021/01/23 05:46:26;;;;;;;11.27;5.60;;;4.10;88.80;;;;;;6122179;23;20010;-82
2021/01/23 05:48:53;;;;;;;9.53;6.03;;;4.10;88.40;;;;;;6122069;23;20026;-82
2021/01/23 05:51:20;;;;;;;8.73;5.60;;;4.10;88.40;;;;;;6197377;22;20083;-82
2021/01/23 05:53:46;;;;;;;12.47;6.67;;;4.10;88.90;;;;;;6251265;22;20011;-83
2021/01/23 05:56:13;;;;;;;10.87;6.27;;;4.10;89.10;;;;;;6251360;22;20065;-83
2021/01/23 05:58:40;;;;;;;9.93;6.07;;;4.10;89.30;;;;;;6278997;22;20011;-83
2021/01/23 06:01:20;;;;;;;10.70;5.97;;;4.10;89.10;;;;;;6250657;22;20089;-83
2021/01/23 06:03:51;;;;;;;9.50;5.90;;;4.10;89.30;;;;;;6278204;22;20428;-83
2021/01/23 06:06:17;;;;;;;11.77;6.27;;;4.20;89.40;;;;;;6278655;22;20003;-82
2021/01/23 06:08:45;;;;;;;11.30;5.90;;;4.10;89.20;;;;;;6278724;22;20000;-82
2021/01/23 06:11:20;;;;;;;10.47;6.03;;;4.10;89.30;;;;;;6278883;22;20007;-82
2021/01/23 06:13:50;;;;;;;10.07;5.53;;;4.10;89.10;;;;;;6279507;22;19996;-81
2021/01/23 06:16:44;;;;;;;9.97;6.30;;;4.10;89.80;;;;;;6279396;22;20316;-82
2021/01/23 06:19:16;;;;;;;9.40;6.40;;;4.10;89.10;;;;;;6273678;22;20395;-82
2021/01/23 06:21:44;;;;;;;10.17;6.03;;;4.10;89.50;;;;;;6280101;22;20033;-82
2021/01/23 06:24:33;;;;;;;12.13;6.33;;;4.10;89.30;;;;;;6278011;22;20000;-81
2021/01/23 06:27:00;;;;;;;9.77;6.15;;;4.20;89.20;;;;;;6233917;22;20226;-81
2021/01/23 06:29:44;;;;;;;14.43;6.67;;;4.20;89.10;;;;;;6277290;22;20003;-80
2021/01/23 06:32:12;;;;;;;13.57;6.47;;;4.20;89.10;;;;;;6277878;22;20303;-81
2021/01/23 06:34:48;;;;;;;12.80;6.17;;;4.20;89.00;;;;;;6250497;22;20003;-81
2021/01/23 06:37:21;;;;;;;12.50;6.63;;;4.20;88.80;;;;;;6277659;22;20006;-81
2021/01/23 06:39:56;;;;;;;11.30;6.27;;;4.20;89.30;;;;;;6276528;22;19995;-81
2021/01/23 06:42:25;;;;;;;12.87;6.37;;;4.20;89.20;;;;;;6277131;22;20057;-81
2021/01/23 06:44:51;;;;;;;10.63;6.45;;;4.20;89.40;;;;;;6250144;22;20053;-81
2021/01/23 06:47:17;;;;;;;12.03;6.20;;;4.20;89.30;;;;;;6277346;22;20000;-81
2021/01/23 06:49:43;;;;;;;10.80;6.33;;;4.20;89.50;;;;;;6276569;22;19996;-81
2021/01/23 06:52:10;;;;;;;10.67;6.60;;;4.10;89.50;;;;;;6277309;22;20042;-81
2021/01/23 06:54:37;;;;;;;13.37;6.87;;;4.10;89.60;;;;;;6277311;22;20445;-81
2021/01/23 06:57:06;;;;;;;12.67;6.13;;;4.10;89.70;;;;;;6277874;22;20071;-81
2021/01/23 06:59:36;;;;;;;9.80;5.85;;;4.20;89.30;;;;;;6277484;22;19996;-81
2021/01/23 07:02:02;;;;;;;12.20;6.20;;;4.20;89.20;;;;;;6277790;22;20327;-81
2021/01/23 07:04:30;;;;;;;13.23;6.70;;;4.20;89.00;;;;;;6277956;22;19996;-81
2021/01/23 07:06:57;;;;;;;15.40;6.63;;;4.20;89.20;;;;;;6278325;22;20015;-80
2021/01/23 07:09:51;;;;;;;10.53;6.17;;;4.20;89.10;;;;;;6277048;22;20050;-79
2021/01/23 07:12:36;;;;;;;12.07;6.07;;;4.20;88.80;;;;;;6250352;22;20413;-80
2021/01/23 07:15:08;;;;;;;11.87;6.37;;;4.20;88.80;;;;;;6250757;22;20327;-80
2021/01/23 07:17:45;;;;;;;11.93;6.27;;;4.20;89.00;;;;;;6277541;22;20049;-80
2021/01/23 07:20:12;;;;;;;15.63;7.00;;;4.20;88.80;;;;;;6249807;22;20434;-79
2021/01/23 07:22:42;;;;;;;14.27;7.07;;;4.20;89.10;;;;;;6276897;22;20428;-80
2021/01/23 07:25:10;;;;;;;11.53;6.87;;;4.20;89.10;;;;;;6249937;22;20004;-80
2021/01/23 07:27:37;;;;;;;11.93;6.27;;;4.10;89.10;;;;;;6277122;22;20389;-80
2021/01/23 07:30:16;;;;;;;13.80;7.13;;;4.10;89.30;;;;;;6249277;22;20525;-79
2021/01/23 07:32:44;;;;;;;12.20;6.35;;;4.10;89.70;;;;;;6277266;22;20046;-79
2021/01/23 07:35:11;;;;;;;12.57;6.40;;;4.20;89.50;;;;;;6277330;22;19996;-81
2021/01/23 07:37:51;;;;;;;9.93;6.33;;;4.20;89.50;;;;;;6249413;22;20003;-81
2021/01/23 07:40:21;;;;;;;12.73;7.33;;;4.20;89.50;;;;;;6275775;22;20014;-79
2021/01/23 07:42:47;;;;;;;;;;;4.20;89.70;;;;;;6249826;22;20061;-82
2021/01/23 07:45:14;;;;;;;13.70;6.87;;;4.20;89.50;;;;;;6277319;22;19981;-79
2021/01/23 07:47:41;;;;;;;14.20;7.03;;;4.20;89.40;;;;;;6277127;22;19996;-79
2021/01/23 07:50:09;;;;;;;13.53;6.90;;;4.20;89.20;;;;;;6275993;22;20000;-81
2021/01/23 07:52:36;;;;;;;13.97;6.97;;;4.20;89.70;;;;;;6277168;22;20000;-82
2021/01/23 07:55:02;;;;;;;13.20;7.30;;;4.20;89.60;;;;;;6277007;22;20000;-81
2021/01/23 07:57:27;;;;;;;13.87;7.50;;;4.20;89.60;;;;;;6277388;22;20018;-81
2021/01/23 07:59:53;;;;;;;11.13;7.20;;;4.20;89.30;;;;;;6249520;22;20339;-82
2021/01/23 08:02:19;;;;;;;15.53;7.70;;;4.20;89.40;;;;;;6276851;22;20007;-81
2021/01/23 08:04:50;;;;;;;13.23;7.30;;;4.20;89.20;;;;;;6248560;22;20312;-81
2021/01/23 08:07:20;;;;;;;13.07;8.00;;;4.20;89.40;;;;;;6275954;22;20037;-81
2021/01/23 08:10:02;;;;;;;13.73;7.03;;;4.20;89.70;;;;;;6275722;22;20000;-81
2021/01/23 08:12:28;;;;;;;14.67;7.83;;;4.30;89.60;;;;;;6275991;22;19999;-81
2021/01/23 08:14:55;;;;;;;12.70;7.50;;;4.30;89.60;;;;;;6275824;22;20004;-81
2021/01/23 08:17:40;;;;;;;13.40;7.60;;;4.30;89.30;;;;;;6248721;22;20004;-80
2021/01/23 08:20:11;;;;;;;13.43;7.43;;;4.30;89.40;;;;;;6275190;22;19999;-80
2021/01/23 08:22:59;;;;;;;12.20;7.23;;;4.30;90.00;;;;;;6276014;22;20443;-81
2021/01/23 08:25:27;;;;;;;13.70;7.07;;;4.30;89.50;;;;;;6276379;22;20004;-81
2021/01/23 08:27:54;;;;;;;14.73;7.87;;;4.30;89.50;;;;;;6276056;22;20000;-81
2021/01/23 08:30:21;;;;;;;13.93;7.90;;;4.30;90.10;;;;;;6248303;22;20082;-79
2021/01/23 08:32:47;;;;;;;13.40;8.20;;;4.30;89.70;;;;;;6275551;22;19995;-81
2021/01/23 08:35:13;;;;;;;15.83;7.97;;;4.40;89.70;;;;;;6276249;22;20053;-80
2021/01/23 08:37:38;;;;;;;12.33;6.70;;;4.40;89.70;;;;;;6276167;22;20003;-81
2021/01/23 08:40:05;;;;;;;12.23;7.40;;;4.40;89.90;;;;;;6275898;22;20038;-81
2021/01/23 08:42:30;;;;;;;12.07;7.20;;;4.40;89.70;;;;;;6276540;22;20511;-81
2021/01/23 08:44:56;;;;;;;12.57;7.00;;;4.40;89.70;;;;;;6276095;22;20003;-81
2021/01/23 08:47:21;;;;;;;12.50;6.43;;;4.40;89.90;;;;;;6276220;22;20326;-81
2021/01/23 08:49:47;;;;;;;11.93;7.40;;;4.40;89.90;;;;;;6275710;22;20004;-81
2021/01/23 08:52:12;;;;;;;13.03;7.43;;;4.40;90.00;;;;;;6249312;22;20435;-81
2021/01/23 08:54:40;;;;;;;12.87;7.40;;;4.40;90.00;;;;;;6276218;22;20071;-80
2021/01/23 08:57:06;;;;;;;11.63;7.07;;;4.40;89.70;;;;;;6275950;22;20010;-81
2021/01/23 08:59:31;;;;;;;10.90;7.00;;;4.40;89.90;;;;;;6275455;22;20027;-79
2021/01/23 09:01:57;;;;;;;13.47;7.40;;;4.40;90.00;;;;;;6249300;22;20390;-81
2021/01/23 09:04:23;;;;;;;13.37;7.20;;;4.40;90.00;;;;;;6276081;22;20338;-80
2021/01/23 09:06:48;;;;;;;12.77;7.33;;;4.40;90.00;;;;;;6275801;22;19999;-81
2021/01/23 09:09:14;;;;;;;15.37;7.47;;;4.40;90.10;;;;;;6275391;22;19999;-81
2021/01/23 09:11:40;;;;;;;14.33;7.20;;;4.40;89.70;;;;;;6276390;22;20004;-81
2021/01/23 09:14:06;;;;;;;12.70;6.50;;;4.40;90.00;;;;;;6276054;22;20015;-81
2021/01/23 09:16:32;;;;;;;13.70;6.80;;;4.40;90.00;;;;;;6276164;22;20430;-81
2021/01/23 09:18:58;;;;;;;11.13;6.83;;;4.40;90.00;;;;;;6275000;22;20045;-81
2021/01/23 09:21:24;;;;;;;12.57;7.27;;;4.50;90.00;;;;;;6275925;22;19999;-81
2021/01/23 09:23:50;;;;;;;19.47;7.77;;;4.50;90.10;;;;;;6275342;22;20034;-81
2021/01/23 09:26:15;;;;;;;10.50;6.63;;;4.50;90.00;;;;;;6275381;22;20454;-81
2021/01/23 09:28:41;;;;;;;10.90;6.27;;;4.50;90.00;;;;;;6275024;22;19996;-81
2021/01/23 09:31:07;;;;;;;12.07;6.43;;;4.50;90.10;;;;;;6275354;22;20004;-81
2021/01/23 09:33:33;;;;;;;13.00;6.37;;;4.50;90.30;;;;;;6275953;22;20369;-81
2021/01/23 09:35:59;;;;;;;11.40;6.83;;;4.60;89.80;;;;;;6275600;22;20000;-81
2021/01/23 09:38:25;;;;;;;12.83;7.30;;;4.60;90.10;;;;;;6276249;22;20022;-81
2021/01/23 09:40:51;;;;;;;13.93;7.23;;;4.60;90.00;;;;;;6274972;22;20027;-81
2021/01/23 09:43:16;;;;;;;11.63;6.33;;;4.60;90.00;;;;;;6275686;22;20007;-81
2021/01/23 09:45:42;;;;;;;12.67;6.63;;;4.60;90.10;;;;;;6248648;22;20026;-81
2021/01/23 09:48:08;;;;;;;10.47;6.60;;;4.60;90.00;;;;;;6275779;22;20431;-82
2021/01/23 09:50:34;;;;;;;12.60;6.43;;;4.60;89.80;;;;;;6247512;22;20007;-81
2021/01/23 09:52:59;;;;;;;12.30;6.50;;;4.70;89.80;;;;;;6275906;22;20003;-79
2021/01/23 09:55:25;;;;;;;11.40;6.17;;;4.70;89.60;;;;;;6248719;22;20004;-81
2021/01/23 09:57:51;;;;;;;14.00;6.40;;;4.70;89.50;;;;;;6277472;22;20000;-81
2021/01/23 10:00:17;;;;;;;14.27;7.23;;;4.70;89.90;;;;;;6276945;22;20026;-81
2021/01/23 10:02:43;;;;;;;11.97;5.80;;;4.70;90.00;;;;;;6277095;22;20007;-81
2021/01/23 10:05:09;;;;;;;11.70;6.53;;;4.70;89.70;;;;;;6277323;22;20003;-81
2021/01/23 10:07:35;;;;;;;10.07;6.07;;;4.70;89.70;;;;;;6277365;22;20019;-81
2021/01/23 10:10:00;;;;;;;11.43;5.83;;;4.70;89.80;;;;;;6276886;22;20438;-81
2021/01/23 10:12:29;;;;;;;11.20;6.43;;;4.70;89.50;;;;;;6277781;22;20070;-81
2021/01/23 10:14:55;;;;;;;12.02;6.95;;;4.80;89.40;;;;;;6277812;22;20026;-82
2021/01/23 10:17:21;;;;;;;14.97;6.97;;;4.80;89.20;;;;;;6277467;22;20000;-81
2021/01/23 10:19:47;;;;;;;11.37;6.30;;;4.70;89.10;;;;;;6276758;22;20055;-81
2021/01/23 10:22:13;;;;;;;13.00;6.87;;;4.80;89.20;;;;;;6276919;22;20438;-80
2021/01/23 10:24:38;;;;;;;10.97;6.57;;;4.80;89.10;;;;;;6250344;22;20003;-81
2021/01/23 10:27:04;;;;;;;13.03;6.40;;;4.80;89.10;;;;;;6249764;22;20010;-81
2021/01/23 10:29:30;;;;;;;12.33;6.60;;;4.80;89.10;;;;;;6249199;22;20027;-81
2021/01/23 10:31:56;;;;;;;11.47;5.90;;;4.90;89.50;;;;;;6277045;22;20007;-81
2021/01/23 10:34:21;;;;;;;11.63;6.43;;;4.90;89.20;;;;;;6277037;22;20436;-81
2021/01/23 10:36:48;;;;;;;10.47;5.90;;;4.90;89.30;;;;;;6276781;22;20021;-80
2021/01/23 10:39:13;;;;;;;11.03;6.43;;;4.90;90.00;;;;;;6276376;22;20438;-81
2021/01/23 10:41:39;;;;;;;13.40;6.27;;;5.00;89.10;;;;;;6276842;22;20004;-81
2021/01/23 10:44:05;;;;;;;11.17;6.30;;;5.00;88.90;;;;;;6277138;22;20011;-81
2021/01/23 10:46:31;;;;;;;13.50;6.27;;;5.00;88.90;;;;;;6276952;22;19996;-80
2021/01/23 10:48:57;;;;;;;10.37;6.13;;;5.00;88.80;;;;;;6276763;22;20000;-81
2021/01/23 10:51:22;;;;;;;11.67;6.20;;;5.10;89.30;;;;;;6277444;22;20071;-81
2021/01/23 10:53:48;;;;;;;9.00;5.67;;;5.10;89.10;;;;;;6278654;22;20342;-81
2021/01/23 10:56:14;;;;;;;13.40;6.73;;;5.10;89.10;;;;;;6277004;22;20069;-80
2021/01/23 10:58:41;;;;;;;12.57;6.40;;;5.20;89.10;;;;;;6249384;22;20035;-81
2021/01/23 11:01:06;;;;;;;10.80;6.30;;;5.20;88.60;;;;;;6276111;22;20007;-81
2021/01/23 11:03:32;;;;;;;9.80;5.80;;;5.20;88.40;;;;;;6277193;22;20075;-81
2021/01/23 11:05:58;;;;;;;11.30;6.77;;;5.20;88.60;;;;;;6250386;22;20004;-82
2021/01/23 11:08:24;;;;;;;10.27;6.33;;;5.20;88.40;;;;;;6277437;22;20003;-82
2021/01/23 11:10:51;;;;;;;13.37;6.40;;;5.20;88.50;;;;;;6278092;22;20071;-81
2021/01/23 11:13:17;;;;;;;10.23;6.10;;;5.20;88.50;;;;;;6250798;22;20000;-81
2021/01/23 11:15:42;;;;;;;13.13;6.13;;;5.20;88.20;;;;;;6251144;22;20082;-82
2021/01/23 11:18:08;;;;;;;34.77;9.97;;;5.30;88.30;;;;;;6278438;22;20033;-81
2021/01/23 11:20:33;;;;;;;15.67;6.40;;;5.40;88.50;;;;;;6250269;22;20000;-82
2021/01/23 11:22:59;;;;;;;11.07;5.13;;;5.30;87.60;;;;;;6278162;22;20004;-82
2021/01/23 11:25:27;;;;;;;11.13;5.13;;;5.30;87.10;;;;;;6277833;22;20053;-81
2021/01/23 11:27:53;;;;;;;9.77;4.70;;;5.40;86.70;;;;;;6277716;22;19996;-82
2021/01/23 11:30:20;;;;;;;7.70;4.53;;;5.40;86.60;;;;;;6277295;22;20057;-81
2021/01/23 11:32:46;;;;;;;9.53;4.80;;;5.40;86.40;;;;;;6250737;22;20003;-82
2021/01/23 11:35:15;;;;;;;9.03;4.67;;;5.50;86.30;;;;;;6278261;22;20015;-82
2021/01/23 11:37:41;;;;;;;7.65;4.13;;;5.50;86.20;;;;;;6279081;22;20014;-81
2021/01/23 11:40:07;;;;;;;7.57;4.20;;;5.50;85.40;;;;;;6277598;22;20335;-81
2021/01/23 11:42:33;;;;;;;6.77;3.67;;;5.50;85.20;;;;;;6250770;22;20003;-82
2021/01/23 11:44:59;;;;;;;7.43;4.10;;;5.50;84.80;;;;;;6251792;22;20003;-81
2021/01/23 11:47:25;;;;;;;8.97;3.67;;;5.50;84.60;;;;;;6250598;22;20449;-81
2021/01/23 11:49:51;;;;;;;10.33;3.67;;;5.60;84.30;;;;;;6249989;22;20004;-81
2021/01/23 11:52:16;;;;;;;6.83;3.37;;;5.60;84.80;;;;;;6276469;22;19996;-81
2021/01/23 11:54:42;;;;;;;6.80;3.60;;;5.60;84.70;;;;;;6277283;22;20003;-81
2021/01/23 11:57:08;;;;;;;8.33;3.80;;;5.60;84.40;;;;;;6276549;22;20000;-81
2021/01/23 11:59:35;;;;;;;7.43;3.53;;;5.60;84.00;;;;;;6276371;22;20488;-81
2021/01/23 12:02:01;;;;;;;10.53;3.90;;;5.70;84.40;;;;;;6276133;22;20000;-81
2021/01/23 12:04:26;;;;;;;7.87;3.20;;;5.70;83.50;;;;;;6276422;22;20070;-81
2021/01/23 12:06:52;;;;;;;8.20;3.67;;;5.70;83.80;;;;;;6249976;22;20008;-81
2021/01/23 12:09:18;;;;;;;5.37;3.00;;;5.70;83.40;;;;;;6250108;22;20465;-81
2021/01/23 12:11:43;;;;;;;6.33;2.63;;;5.70;82.50;;;;;;6278350;22;20007;-81
2021/01/23 12:14:09;;;;;;;10.83;2.67;;;5.80;80.20;;;;;;6278256;22;20375;-82
2021/01/23 12:16:34;;;;;;;5.10;2.10;;;5.80;80.40;;;;;;6278047;22;20003;-82
2021/01/23 12:19:00;;;;;;;5.63;2.27;;;5.80;78.90;;;;;;6277394;22;19999;-81
2021/01/23 12:21:26;;;;;;;6.13;2.50;;;5.80;79.60;;;;;;6277523;22;20498;-82
2021/01/23 12:23:53;;;;;;;5.17;2.23;;;5.80;80.20;;;;;;6277911;22;20074;-81
2021/01/23 12:26:20;;;;;;;6.77;2.57;;;5.80;80.70;;;;;;6278129;22;20334;-82
2021/01/23 12:28:45;;;;;;;7.97;2.50;;;5.80;80.10;;;;;;6277357;22;20004;-82
2021/01/23 12:31:11;;;;;;;5.67;2.37;;;5.90;79.90;;;;;;6277143;22;20491;-81
2021/01/23 12:33:37;;;;;;;8.23;2.83;;;5.80;80.40;;;;;;6250415;22;20010;-81
2021/01/23 12:36:02;;;;;;;5.63;2.50;;;5.90;80.50;;;;;;6250424;22;20085;-81
2021/01/23 12:38:28;;;;;;;8.33;2.30;;;5.90;80.00;;;;;;6250787;22;20367;-82
2021/01/23 12:40:53;;;;;;;5.67;2.30;;;5.80;79.80;;;;;;6249632;22;20359;-81
2021/01/23 12:43:19;;;;;;;5.10;2.17;;;5.90;80.20;;;;;;6277780;22;19999;-81
2021/01/23 12:45:45;;;;;;;9.87;2.40;;;5.90;80.50;;;;;;6279017;22;20369;-81
2021/01/23 12:48:11;;;;;;;5.40;2.07;;;5.90;79.70;;;;;;6250271;22;20465;-81
2021/01/23 12:50:36;;;;;;;4.97;2.10;;;5.90;79.90;;;;;;6249905;22;20010;-81
2021/01/23 12:53:02;;;;;;;8.40;2.63;;;5.90;80.30;;;;;;6277277;22;20453;-81
2021/01/23 12:55:27;;;;;;;8.43;2.63;;;5.90;80.60;;;;;;6278258;22;20026;-81